sensor_id;sensor_type;location;lat;lon;timestamp;P1;durP1;ratioP1;P2;durP2;ratioP2
75864;SDS011;64510;46.704;38.274;2023-04-03T00:01:36;2.30;;;1.73;;
75864;SDS011;64510;46.704;38.274;2023-04-03T00:04:04;1.45;;;1.35;;
75864;SDS011;64510;46.704;38.274;2023-04-03T00:06:30;2.03;;;1.75;;
75864;SDS011;64510;46.704;38.274;2023-04-03T00:08:57;2.25;;;2.08;;
75864;SDS011;64510;46.704;38.274;2023-04-03T00:11:22;1.95;;;1.38;;
75864;SDS011;64510;46.704;38.274;2023-04-03T00:13:49;2.47;;;1.92;;
75864;SDS011;64510;46.704;38.274;2023-04-03T00:16:15;1.30;;;1.20;;
75864;SDS011;64510;46.704;38.274;2023-04-03T00:18:41;4.90;;;1.83;;
75864;SDS011;64510;46.704;38.274;2023-04-03T00:21:07;2.75;;;2.55;;
75864;SDS011;64510;46.704;38.274;2023-04-03T00:23:35;4.22;;;1.48;;
75864;SDS011;64510;46.704;38.274;2023-04-03T00:26:01;2.75;;;1.65;;
75864;SDS011;64510;46.704;38.274;2023-04-03T00:28:27;1.63;;;1.17;;
75864;SDS011;64510;46.704;38.274;2023-04-03T00:30:53;2.38;;;2.17;;
75864;SDS011;64510;46.704;38.274;2023-04-03T00:33:19;2.28;;;2.13;;
75864;SDS011;64510;46.704;38.274;2023-04-03T00:35:49;2.10;;;1.65;;
75864;SDS011;64510;46.704;38.274;2023-04-03T00:38:16;2.17;;;1.33;;
75864;SDS011;64510;46.704;38.274;2023-04-03T00:40:44;1.20;;;1.02;;
75864;SDS011;64510;46.704;38.274;2023-04-03T00:43:13;2.83;;;2.17;;
75864;SDS011;64510;46.704;38.274;2023-04-03T00:45:43;3.07;;;2.07;;
75864;SDS011;64510;46.704;38.274;2023-04-03T00:48:11;4.25;;;2.22;;
75864;SDS011;64510;46.704;38.274;2023-04-03T00:50:41;2.17;;;1.90;;
75864;SDS011;64510;46.704;38.274;2023-04-03T00:53:09;1.15;;;1.15;;
75864;SDS011;64510;46.704;38.274;2023-04-03T00:58:05;3.78;;;1.85;;
75864;SDS011;64510;46.704;38.274;2023-04-03T01:00:32;4.95;;;2.40;;
75864;SDS011;64510;46.704;38.274;2023-04-03T01:02:59;2.28;;;1.98;;
75864;SDS011;64510;46.704;38.274;2023-04-03T01:05:26;2.35;;;2.15;;
75864;SDS011;64510;46.704;38.274;2023-04-03T01:07:52;3.95;;;2.15;;
75864;SDS011;64510;46.704;38.274;2023-04-03T01:10:18;3.03;;;2.00;;
75864;SDS011;64510;46.704;38.274;2023-04-03T01:12:47;2.72;;;1.77;;
75864;SDS011;64510;46.704;38.274;2023-04-03T01:15:19;3.50;;;1.65;;
75864;SDS011;64510;46.704;38.274;2023-04-03T01:17:51;5.95;;;2.33;;
75864;SDS011;64510;46.704;38.274;2023-04-03T01:25:34;6.88;;;2.45;;
75864;SDS011;64510;46.704;38.274;2023-04-03T01:28:28;2.80;;;2.60;;
75864;SDS011;64510;46.704;38.274;2023-04-03T01:33:35;2.10;;;1.48;;
75864;SDS011;64510;46.704;38.274;2023-04-03T01:36:02;2.83;;;2.35;;
75864;SDS011;64510;46.704;38.274;2023-04-03T01:38:29;7.00;;;3.15;;
75864;SDS011;64510;46.704;38.274;2023-04-03T01:40:55;2.22;;;2.03;;
75864;SDS011;64510;46.704;38.274;2023-04-03T01:43:21;2.55;;;2.22;;
75864;SDS011;64510;46.704;38.274;2023-04-03T01:45:47;5.13;;;2.88;;
75864;SDS011;64510;46.704;38.274;2023-04-03T01:48:16;3.78;;;2.40;;
75864;SDS011;64510;46.704;38.274;2023-04-03T01:50:42;3.53;;;2.65;;
75864;SDS011;64510;46.704;38.274;2023-04-03T01:53:08;6.53;;;2.80;;
75864;SDS011;64510;46.704;38.274;2023-04-03T01:55:34;4.20;;;2.17;;
75864;SDS011;64510;46.704;38.274;2023-04-03T01:58:01;3.75;;;3.22;;
75864;SDS011;64510;46.704;38.274;2023-04-03T02:00:26;4.82;;;2.80;;
75864;SDS011;64510;46.704;38.274;2023-04-03T02:02:53;5.00;;;2.63;;
75864;SDS011;64510;46.704;38.274;2023-04-03T02:05:19;4.68;;;2.95;;
75864;SDS011;64510;46.704;38.274;2023-04-03T02:07:45;1.90;;;1.80;;
75864;SDS011;64510;46.704;38.274;2023-04-03T02:10:11;5.70;;;2.33;;
75864;SDS011;64510;46.704;38.274;2023-04-03T02:12:37;4.80;;;1.73;;
75864;SDS011;64510;46.704;38.274;2023-04-03T02:15:03;4.78;;;1.90;;
75864;SDS011;64510;46.704;38.274;2023-04-03T02:17:29;3.30;;;2.17;;
75864;SDS011;64510;46.704;38.274;2023-04-03T02:19:55;2.00;;;1.83;;
75864;SDS011;64510;46.704;38.274;2023-04-03T02:22:22;2.72;;;2.53;;
75864;SDS011;64510;46.704;38.274;2023-04-03T02:24:50;3.53;;;2.58;;
75864;SDS011;64510;46.704;38.274;2023-04-03T02:27:17;6.68;;;3.15;;
75864;SDS011;64510;46.704;38.274;2023-04-03T02:29:43;4.13;;;2.28;;
75864;SDS011;64510;46.704;38.274;2023-04-03T02:32:09;6.47;;;2.88;;
75864;SDS011;64510;46.704;38.274;2023-04-03T02:34:35;8.10;;;2.83;;
75864;SDS011;64510;46.704;38.274;2023-04-03T02:37:01;5.30;;;2.97;;
75864;SDS011;64510;46.704;38.274;2023-04-03T02:39:28;2.40;;;2.20;;
75864;SDS011;64510;46.704;38.274;2023-04-03T02:41:55;2.50;;;2.00;;
75864;SDS011;64510;46.704;38.274;2023-04-03T02:44:23;7.32;;;3.20;;
75864;SDS011;64510;46.704;38.274;2023-04-03T02:46:49;3.13;;;2.78;;
75864;SDS011;64510;46.704;38.274;2023-04-03T02:49:16;6.05;;;2.25;;
75864;SDS011;64510;46.704;38.274;2023-04-03T02:51:42;3.78;;;1.90;;
75864;SDS011;64510;46.704;38.274;2023-04-03T02:54:09;5.05;;;2.35;;
75864;SDS011;64510;46.704;38.274;2023-04-03T02:56:38;2.20;;;2.03;;
75864;SDS011;64510;46.704;38.274;2023-04-03T02:59:04;4.28;;;2.33;;
75864;SDS011;64510;46.704;38.274;2023-04-03T03:01:34;2.90;;;2.30;;
75864;SDS011;64510;46.704;38.274;2023-04-03T03:04:01;3.65;;;3.30;;
75864;SDS011;64510;46.704;38.274;2023-04-03T03:06:27;2.30;;;2.10;;
75864;SDS011;64510;46.704;38.274;2023-04-03T03:08:53;6.78;;;3.25;;
75864;SDS011;64510;46.704;38.274;2023-04-03T03:11:19;2.58;;;2.38;;
75864;SDS011;64510;46.704;38.274;2023-04-03T03:13:46;2.88;;;2.17;;
75864;SDS011;64510;46.704;38.274;2023-04-03T03:16:12;6.07;;;3.03;;
75864;SDS011;64510;46.704;38.274;2023-04-03T03:18:38;4.93;;;2.38;;
75864;SDS011;64510;46.704;38.274;2023-04-03T03:21:04;2.72;;;2.30;;
75864;SDS011;64510;46.704;38.274;2023-04-03T03:23:30;1.75;;;1.25;;
75864;SDS011;64510;46.704;38.274;2023-04-03T03:25:58;5.43;;;2.35;;
75864;SDS011;64510;46.704;38.274;2023-04-03T03:28:26;4.20;;;2.38;;
75864;SDS011;64510;46.704;38.274;2023-04-03T03:30:52;2.42;;;2.22;;
75864;SDS011;64510;46.704;38.274;2023-04-03T03:33:19;4.32;;;3.00;;
75864;SDS011;64510;46.704;38.274;2023-04-03T03:35:45;2.60;;;2.33;;
75864;SDS011;64510;46.704;38.274;2023-04-03T03:38:11;9.80;;;2.83;;
75864;SDS011;64510;46.704;38.274;2023-04-03T03:40:37;2.40;;;2.20;;
75864;SDS011;64510;46.704;38.274;2023-04-03T03:43:04;4.43;;;2.58;;
75864;SDS011;64510;46.704;38.274;2023-04-03T03:45:30;2.75;;;1.75;;
75864;SDS011;64510;46.704;38.274;2023-04-03T03:47:56;3.65;;;1.75;;
75864;SDS011;64510;46.704;38.274;2023-04-03T03:50:23;2.47;;;2.25;;
75864;SDS011;64510;46.704;38.274;2023-04-03T03:52:49;2.08;;;1.88;;
75864;SDS011;64510;46.704;38.274;2023-04-03T03:55:16;4.43;;;2.60;;
75864;SDS011;64510;46.704;38.274;2023-04-03T03:57:42;5.00;;;2.13;;
75864;SDS011;64510;46.704;38.274;2023-04-03T04:00:09;2.03;;;1.83;;
75864;SDS011;64510;46.704;38.274;2023-04-03T04:02:44;1.70;;;1.60;;
75864;SDS011;64510;46.704;38.274;2023-04-03T04:05:13;4.78;;;2.58;;
75864;SDS011;64510;46.704;38.274;2023-04-03T04:07:39;4.22;;;1.95;;
75864;SDS011;64510;46.704;38.274;2023-04-03T04:10:06;3.10;;;2.25;;
75864;SDS011;64510;46.704;38.274;2023-04-03T04:12:32;3.67;;;2.17;;
75864;SDS011;64510;46.704;38.274;2023-04-03T04:14:58;4.00;;;2.25;;
75864;SDS011;64510;46.704;38.274;2023-04-03T04:17:24;4.65;;;2.22;;
75864;SDS011;64510;46.704;38.274;2023-04-03T04:19:51;2.25;;;1.77;;
75864;SDS011;64510;46.704;38.274;2023-04-03T04:22:17;2.70;;;1.65;;
75864;SDS011;64510;46.704;38.274;2023-04-03T04:24:43;2.33;;;2.15;;
75864;SDS011;64510;46.704;38.274;2023-04-03T04:27:09;8.20;;;1.88;;
75864;SDS011;64510;46.704;38.274;2023-04-03T04:29:35;1.88;;;1.58;;
75864;SDS011;64510;46.704;38.274;2023-04-03T04:32:04;2.35;;;2.15;;
75864;SDS011;64510;46.704;38.274;2023-04-03T04:34:30;3.85;;;2.65;;
75864;SDS011;64510;46.704;38.274;2023-04-03T04:36:57;2.30;;;1.98;;
75864;SDS011;64510;46.704;38.274;2023-04-03T04:39:24;2.55;;;1.60;;
75864;SDS011;64510;46.704;38.274;2023-04-03T04:41:51;2.63;;;1.75;;
75864;SDS011;64510;46.704;38.274;2023-04-03T04:44:17;8.95;;;3.45;;
75864;SDS011;64510;46.704;38.274;2023-04-03T04:46:44;4.15;;;3.10;;
75864;SDS011;64510;46.704;38.274;2023-04-03T04:49:10;5.28;;;4.03;;
75864;SDS011;64510;46.704;38.274;2023-04-03T04:51:37;8.05;;;6.63;;
75864;SDS011;64510;46.704;38.274;2023-04-03T04:54:03;14.75;;;6.90;;
75864;SDS011;64510;46.704;38.274;2023-04-03T04:56:29;9.57;;;6.38;;
75864;SDS011;64510;46.704;38.274;2023-04-03T04:58:56;8.52;;;5.22;;
75864;SDS011;64510;46.704;38.274;2023-04-03T05:01:23;4.22;;;3.05;;
75864;SDS011;64510;46.704;38.274;2023-04-03T05:04:12;3.70;;;2.42;;
75864;SDS011;64510;46.704;38.274;2023-04-03T05:06:38;4.13;;;2.17;;
75864;SDS011;64510;46.704;38.274;2023-04-03T05:09:09;3.95;;;2.67;;
75864;SDS011;64510;46.704;38.274;2023-04-03T05:11:36;3.58;;;3.08;;
75864;SDS011;64510;46.704;38.274;2023-04-03T05:14:03;7.57;;;3.35;;
75864;SDS011;64510;46.704;38.274;2023-04-03T05:16:32;3.50;;;2.63;;
75864;SDS011;64510;46.704;38.274;2023-04-03T05:18:59;4.75;;;2.25;;
75864;SDS011;64510;46.704;38.274;2023-04-03T05:21:26;2.50;;;2.17;;
75864;SDS011;64510;46.704;38.274;2023-04-03T05:23:54;2.90;;;2.58;;
75864;SDS011;64510;46.704;38.274;2023-04-03T05:26:20;2.92;;;2.65;;
75864;SDS011;64510;46.704;38.274;2023-04-03T05:28:48;2.45;;;2.25;;
75864;SDS011;64510;46.704;38.274;2023-04-03T05:31:15;5.53;;;2.70;;
75864;SDS011;64510;46.704;38.274;2023-04-03T05:33:41;3.78;;;2.85;;
75864;SDS011;64510;46.704;38.274;2023-04-03T05:36:11;7.88;;;2.97;;
75864;SDS011;64510;46.704;38.274;2023-04-03T05:38:42;3.10;;;2.80;;
75864;SDS011;64510;46.704;38.274;2023-04-03T05:41:08;3.58;;;2.22;;
75864;SDS011;64510;46.704;38.274;2023-04-03T05:43:34;5.28;;;2.13;;
75864;SDS011;64510;46.704;38.274;2023-04-03T05:46:03;2.55;;;1.98;;
75864;SDS011;64510;46.704;38.274;2023-04-03T05:48:30;2.88;;;2.50;;
75864;SDS011;64510;46.704;38.274;2023-04-03T05:50:56;2.03;;;1.70;;
75864;SDS011;64510;46.704;38.274;2023-04-03T05:53:26;3.35;;;2.65;;
75864;SDS011;64510;46.704;38.274;2023-04-03T05:55:57;5.57;;;2.38;;
75864;SDS011;64510;46.704;38.274;2023-04-03T05:58:24;3.38;;;2.40;;
75864;SDS011;64510;46.704;38.274;2023-04-03T06:00:51;2.47;;;1.98;;
75864;SDS011;64510;46.704;38.274;2023-04-03T06:03:18;3.63;;;1.50;;
75864;SDS011;64510;46.704;38.274;2023-04-03T06:05:44;2.20;;;1.92;;
75864;SDS011;64510;46.704;38.274;2023-04-03T06:08:11;3.05;;;2.60;;
75864;SDS011;64510;46.704;38.274;2023-04-03T06:10:38;4.03;;;2.50;;
75864;SDS011;64510;46.704;38.274;2023-04-03T06:13:05;2.72;;;1.83;;
75864;SDS011;64510;46.704;38.274;2023-04-03T06:15:31;4.45;;;2.38;;
75864;SDS011;64510;46.704;38.274;2023-04-03T06:17:57;3.70;;;1.98;;
75864;SDS011;64510;46.704;38.274;2023-04-03T06:20:23;3.38;;;2.20;;
75864;SDS011;64510;46.704;38.274;2023-04-03T06:22:49;3.47;;;2.17;;
75864;SDS011;64510;46.704;38.274;2023-04-03T06:25:15;5.47;;;2.55;;
75864;SDS011;64510;46.704;38.274;2023-04-03T06:27:44;2.47;;;2.22;;
75864;SDS011;64510;46.704;38.274;2023-04-03T06:30:10;2.13;;;2.00;;
75864;SDS011;64510;46.704;38.274;2023-04-03T06:32:37;3.10;;;2.65;;
75864;SDS011;64510;46.704;38.274;2023-04-03T06:35:03;7.82;;;3.05;;
75864;SDS011;64510;46.704;38.274;2023-04-03T06:37:30;1.73;;;1.40;;
75864;SDS011;64510;46.704;38.274;2023-04-03T06:39:57;5.63;;;3.55;;
75864;SDS011;64510;46.704;38.274;2023-04-03T06:42:25;4.50;;;3.00;;
75864;SDS011;64510;46.704;38.274;2023-04-03T06:44:58;3.17;;;2.22;;
75864;SDS011;64510;46.704;38.274;2023-04-03T06:47:23;4.18;;;3.10;;
75864;SDS011;64510;46.704;38.274;2023-04-03T06:49:49;6.20;;;3.10;;
75864;SDS011;64510;46.704;38.274;2023-04-03T06:52:15;1.80;;;1.70;;
75864;SDS011;64510;46.704;38.274;2023-04-03T06:54:41;4.22;;;3.75;;
75864;SDS011;64510;46.704;38.274;2023-04-03T06:57:07;4.95;;;3.10;;
75864;SDS011;64510;46.704;38.274;2023-04-03T06:59:34;3.80;;;2.70;;
75864;SDS011;64510;46.704;38.274;2023-04-03T07:02:01;5.40;;;3.13;;
75864;SDS011;64510;46.704;38.274;2023-04-03T07:04:27;5.18;;;2.47;;
75864;SDS011;64510;46.704;38.274;2023-04-03T07:06:53;2.63;;;2.25;;
75864;SDS011;64510;46.704;38.274;2023-04-03T07:09:19;4.78;;;2.88;;
75864;SDS011;64510;46.704;38.274;2023-04-03T07:11:46;3.50;;;2.80;;
75864;SDS011;64510;46.704;38.274;2023-04-03T07:14:11;6.93;;;3.55;;
75864;SDS011;64510;46.704;38.274;2023-04-03T07:16:37;10.30;;;2.55;;
75864;SDS011;64510;46.704;38.274;2023-04-03T07:19:03;5.03;;;2.17;;
75864;SDS011;64510;46.704;38.274;2023-04-03T07:21:29;3.20;;;2.47;;
75864;SDS011;64510;46.704;38.274;2023-04-03T07:23:55;4.55;;;4.15;;
75864;SDS011;64510;46.704;38.274;2023-04-03T07:26:21;7.05;;;3.33;;
75864;SDS011;64510;46.704;38.274;2023-04-03T07:28:48;4.50;;;2.60;;
75864;SDS011;64510;46.704;38.274;2023-04-03T07:31:15;7.43;;;3.08;;
75864;SDS011;64510;46.704;38.274;2023-04-03T07:33:42;3.88;;;3.22;;
75864;SDS011;64510;46.704;38.274;2023-04-03T07:36:09;11.65;;;2.70;;
75864;SDS011;64510;46.704;38.274;2023-04-03T07:38:36;3.50;;;2.58;;
75864;SDS011;64510;46.704;38.274;2023-04-03T07:41:02;6.05;;;3.08;;
75864;SDS011;64510;46.704;38.274;2023-04-03T07:43:29;4.07;;;2.78;;
75864;SDS011;64510;46.704;38.274;2023-04-03T07:45:55;10.05;;;3.33;;
75864;SDS011;64510;46.704;38.274;2023-04-03T07:48:21;4.68;;;1.90;;
75864;SDS011;64510;46.704;38.274;2023-04-03T07:50:51;2.45;;;2.05;;
75864;SDS011;64510;46.704;38.274;2023-04-03T07:53:17;4.32;;;2.28;;
75864;SDS011;64510;46.704;38.274;2023-04-03T07:55:45;5.88;;;1.55;;
75864;SDS011;64510;46.704;38.274;2023-04-03T07:58:12;2.70;;;1.83;;
75864;SDS011;64510;46.704;38.274;2023-04-03T08:00:40;3.90;;;1.30;;
75864;SDS011;64510;46.704;38.274;2023-04-03T08:03:06;1.08;;;0.98;;
75864;SDS011;64510;46.704;38.274;2023-04-03T08:05:38;1.55;;;1.30;;
75864;SDS011;64510;46.704;38.274;2023-04-03T08:08:07;1.83;;;1.17;;
75864;SDS011;64510;46.704;38.274;2023-04-03T08:10:34;1.50;;;1.40;;
75864;SDS011;64510;46.704;38.274;2023-04-03T08:13:01;1.02;;;0.88;;
75864;SDS011;64510;46.704;38.274;2023-04-03T08:15:27;1.25;;;1.23;;
75864;SDS011;64510;46.704;38.274;2023-04-03T08:17:55;1.02;;;0.98;;
75864;SDS011;64510;46.704;38.274;2023-04-03T08:20:21;1.48;;;1.38;;
75864;SDS011;64510;46.704;38.274;2023-04-03T08:22:47;1.05;;;0.90;;
75864;SDS011;64510;46.704;38.274;2023-04-03T08:25:13;1.05;;;0.90;;
75864;SDS011;64510;46.704;38.274;2023-04-03T08:27:39;0.70;;;0.70;;
75864;SDS011;64510;46.704;38.274;2023-04-03T08:30:05;1.77;;;0.73;;
75864;SDS011;64510;46.704;38.274;2023-04-03T08:32:35;1.15;;;1.10;;
75864;SDS011;64510;46.704;38.274;2023-04-03T08:35:02;1.85;;;0.90;;
75864;SDS011;64510;46.704;38.274;2023-04-03T08:37:28;0.70;;;0.70;;
75864;SDS011;64510;46.704;38.274;2023-04-03T08:39:54;1.08;;;0.70;;
75864;SDS011;64510;46.704;38.274;2023-04-03T08:42:33;0.90;;;0.80;;
75864;SDS011;64510;46.704;38.274;2023-04-03T08:48:31;2.35;;;0.90;;
75864;SDS011;64510;46.704;38.274;2023-04-03T08:51:02;0.95;;;0.93;;
75864;SDS011;64510;46.704;38.274;2023-04-03T08:53:37;2.20;;;1.50;;
75864;SDS011;64510;46.704;38.274;2023-04-03T08:58:48;1.77;;;1.42;;
75864;SDS011;64510;46.704;38.274;2023-04-03T09:01:28;3.22;;;2.00;;
75864;SDS011;64510;46.704;38.274;2023-04-03T09:04:05;2.33;;;1.10;;
75864;SDS011;64510;46.704;38.274;2023-04-03T09:06:37;0.70;;;0.70;;
75864;SDS011;64510;46.704;38.274;2023-04-03T09:12:06;4.10;;;1.58;;
75864;SDS011;64510;46.704;38.274;2023-04-03T09:22:56;1.38;;;1.15;;
75864;SDS011;64510;46.704;38.274;2023-04-03T09:25:23;5.18;;;1.65;;
75864;SDS011;64510;46.704;38.274;2023-04-03T09:27:51;2.83;;;1.30;;
75864;SDS011;64510;46.704;38.274;2023-04-03T09:30:24;2.13;;;1.40;;
75864;SDS011;64510;46.704;38.274;2023-04-03T09:32:51;2.45;;;1.33;;
75864;SDS011;64510;46.704;38.274;2023-04-03T09:35:32;3.80;;;1.70;;
75864;SDS011;64510;46.704;38.274;2023-04-03T09:38:00;1.60;;;1.52;;
75864;SDS011;64510;46.704;38.274;2023-04-03T09:40:43;2.20;;;1.02;;
75864;SDS011;64510;46.704;38.274;2023-04-03T09:49:01;1.63;;;1.17;;
75864;SDS011;64510;46.704;38.274;2023-04-03T09:51:29;3.33;;;1.63;;
75864;SDS011;64510;46.704;38.274;2023-04-03T09:53:56;2.40;;;1.33;;
75864;SDS011;64510;46.704;38.274;2023-04-03T09:58:49;4.68;;;2.15;;
75864;SDS011;64510;46.704;38.274;2023-04-03T10:01:28;1.38;;;1.15;;
75864;SDS011;64510;46.704;38.274;2023-04-03T10:04:15;2.22;;;1.15;;
75864;SDS011;64510;46.704;38.274;2023-04-03T10:06:44;3.22;;;1.35;;
75864;SDS011;64510;46.704;38.274;2023-04-03T10:09:17;1.70;;;0.80;;
75864;SDS011;64510;46.704;38.274;2023-04-03T10:12:03;0.77;;;0.77;;
75864;SDS011;64510;46.704;38.274;2023-04-03T10:14:39;1.30;;;1.20;;
75864;SDS011;64510;46.704;38.274;2023-04-03T10:17:22;2.05;;;1.13;;
75864;SDS011;64510;46.704;38.274;2023-04-03T10:26:09;2.60;;;1.50;;
75864;SDS011;64510;46.704;38.274;2023-04-03T10:34:35;1.52;;;1.42;;
75864;SDS011;64510;46.704;38.274;2023-04-03T10:39:57;3.40;;;2.15;;
75864;SDS011;64510;46.704;38.274;2023-04-03T10:42:42;1.15;;;0.77;;
75864;SDS011;64510;46.704;38.274;2023-04-03T10:45:36;0.88;;;0.85;;
75864;SDS011;64510;46.704;38.274;2023-04-03T10:48:29;3.92;;;1.05;;
75864;SDS011;64510;46.704;38.274;2023-04-03T10:51:12;1.17;;;1.05;;
75864;SDS011;64510;46.704;38.274;2023-04-03T10:59:26;2.45;;;1.17;;
75864;SDS011;64510;46.704;38.274;2023-04-03T11:01:58;1.10;;;1.00;;
75864;SDS011;64510;46.704;38.274;2023-04-03T11:09:33;2.05;;;0.82;;
75864;SDS011;64510;46.704;38.274;2023-04-03T11:12:06;0.50;;;0.50;;
75864;SDS011;64510;46.704;38.274;2023-04-03T11:14:36;0.95;;;0.95;;
75864;SDS011;64510;46.704;38.274;2023-04-03T11:19:59;0.60;;;0.60;;
75864;SDS011;64510;46.704;38.274;2023-04-03T11:22:41;1.00;;;0.55;;
75864;SDS011;64510;46.704;38.274;2023-04-03T11:27:43;1.00;;;1.00;;
75864;SDS011;64510;46.704;38.274;2023-04-03T11:36:00;1.17;;;1.17;;
75864;SDS011;64510;46.704;38.274;2023-04-03T11:38:35;2.90;;;1.00;;
75864;SDS011;64510;46.704;38.274;2023-04-03T11:41:06;1.48;;;0.95;;
75864;SDS011;64510;46.704;38.274;2023-04-03T11:43:33;2.03;;;0.95;;
75864;SDS011;64510;46.704;38.274;2023-04-03T11:46:05;1.70;;;0.95;;
75864;SDS011;64510;46.704;38.274;2023-04-03T11:53:41;1.00;;;0.73;;
75864;SDS011;64510;46.704;38.274;2023-04-03T12:01:51;1.00;;;0.80;;
75864;SDS011;64510;46.704;38.274;2023-04-03T12:04:18;0.80;;;0.80;;
75864;SDS011;64510;46.704;38.274;2023-04-03T12:15:18;1.73;;;0.90;;
75864;SDS011;64510;46.704;38.274;2023-04-03T12:17:48;0.75;;;0.75;;
75864;SDS011;64510;46.704;38.274;2023-04-03T12:20:46;0.93;;;0.82;;
75864;SDS011;64510;46.704;38.274;2023-04-03T12:23:28;1.92;;;1.20;;
75864;SDS011;64510;46.704;38.274;2023-04-03T12:26:20;2.55;;;1.33;;
75864;SDS011;64510;46.704;38.274;2023-04-03T12:28:48;1.38;;;1.27;;
75864;SDS011;64510;46.704;38.274;2023-04-03T12:31:16;1.60;;;1.05;;
75864;SDS011;64510;46.704;38.274;2023-04-03T12:33:47;0.63;;;0.63;;
75864;SDS011;64510;46.704;38.274;2023-04-03T12:36:26;1.17;;;0.60;;
75864;SDS011;64510;46.704;38.274;2023-04-03T12:39:04;2.75;;;0.75;;
75864;SDS011;64510;46.704;38.274;2023-04-03T12:41:56;0.80;;;0.80;;
75864;SDS011;64510;46.704;38.274;2023-04-03T12:44:49;0.50;;;0.50;;
75864;SDS011;64510;46.704;38.274;2023-04-03T12:47:29;0.57;;;0.55;;
75864;SDS011;64510;46.704;38.274;2023-04-03T12:50:01;1.95;;;1.00;;
75864;SDS011;64510;46.704;38.274;2023-04-03T12:55:01;2.83;;;1.05;;
75864;SDS011;64510;46.704;38.274;2023-04-03T12:57:29;1.85;;;0.70;;
75864;SDS011;64510;46.704;38.274;2023-04-03T12:59:56;0.52;;;0.47;;
75864;SDS011;64510;46.704;38.274;2023-04-03T13:04:53;2.13;;;0.93;;
75864;SDS011;64510;46.704;38.274;2023-04-03T13:09:59;1.92;;;1.27;;
75864;SDS011;64510;46.704;38.274;2023-04-03T13:12:28;1.15;;;0.55;;
75864;SDS011;64510;46.704;38.274;2023-04-03T13:14:56;1.30;;;0.98;;
75864;SDS011;64510;46.704;38.274;2023-04-03T13:17:25;0.85;;;0.60;;
75864;SDS011;64510;46.704;38.274;2023-04-03T13:19:52;1.52;;;1.30;;
75864;SDS011;64510;46.704;38.274;2023-04-03T13:22:23;5.63;;;1.00;;
75864;SDS011;64510;46.704;38.274;2023-04-03T13:25:10;2.38;;;0.55;;
75864;SDS011;64510;46.704;38.274;2023-04-03T13:27:40;0.60;;;0.60;;
75864;SDS011;64510;46.704;38.274;2023-04-03T13:30:17;1.15;;;1.10;;
75864;SDS011;64510;46.704;38.274;2023-04-03T13:32:45;1.60;;;1.13;;
75864;SDS011;64510;46.704;38.274;2023-04-03T13:40:53;0.45;;;0.45;;
75864;SDS011;64510;46.704;38.274;2023-04-03T13:43:24;2.42;;;0.85;;
75864;SDS011;64510;46.704;38.274;2023-04-03T13:46:03;0.98;;;0.68;;
75864;SDS011;64510;46.704;38.274;2023-04-03T13:48:47;1.17;;;0.82;;
75864;SDS011;64510;46.704;38.274;2023-04-03T13:51:22;0.60;;;0.60;;
75864;SDS011;64510;46.704;38.274;2023-04-03T13:53:56;0.75;;;0.75;;
75864;SDS011;64510;46.704;38.274;2023-04-03T13:56:30;1.70;;;0.63;;
75864;SDS011;64510;46.704;38.274;2023-04-03T14:01:47;1.02;;;0.57;;
75864;SDS011;64510;46.704;38.274;2023-04-03T14:07:12;1.45;;;0.80;;
75864;SDS011;64510;46.704;38.274;2023-04-03T14:09:41;0.88;;;0.88;;
75864;SDS011;64510;46.704;38.274;2023-04-03T14:12:40;1.67;;;1.02;;
75864;SDS011;64510;46.704;38.274;2023-04-03T14:15:03;2.83;;;0.98;;
75864;SDS011;64510;46.704;38.274;2023-04-03T14:17:36;1.77;;;1.00;;
75864;SDS011;64510;46.704;38.274;2023-04-03T14:20:02;2.03;;;1.25;;
75864;SDS011;64510;46.704;38.274;2023-04-03T14:22:30;1.15;;;1.02;;
75864;SDS011;64510;46.704;38.274;2023-04-03T14:24:57;1.08;;;0.95;;
75864;SDS011;64510;46.704;38.274;2023-04-03T14:27:25;1.40;;;1.08;;
75864;SDS011;64510;46.704;38.274;2023-04-03T14:29:54;5.55;;;1.30;;
75864;SDS011;64510;46.704;38.274;2023-04-03T14:32:22;0.80;;;0.80;;
75864;SDS011;64510;46.704;38.274;2023-04-03T14:34:50;1.48;;;0.75;;
75864;SDS011;64510;46.704;38.274;2023-04-03T14:37:21;0.68;;;0.65;;
75864;SDS011;64510;46.704;38.274;2023-04-03T14:39:50;1.33;;;0.95;;
75864;SDS011;64510;46.704;38.274;2023-04-03T14:42:20;2.45;;;1.30;;
75864;SDS011;64510;46.704;38.274;2023-04-03T14:44:48;1.17;;;1.15;;
75864;SDS011;64510;46.704;38.274;2023-04-03T14:47:24;1.38;;;1.10;;
75864;SDS011;64510;46.704;38.274;2023-04-03T14:49:52;3.42;;;2.20;;
75864;SDS011;64510;46.704;38.274;2023-04-03T14:52:20;0.65;;;0.65;;
75864;SDS011;64510;46.704;38.274;2023-04-03T14:54:51;1.52;;;1.42;;
75864;SDS011;64510;46.704;38.274;2023-04-03T14:57:18;0.80;;;0.80;;
75864;SDS011;64510;46.704;38.274;2023-04-03T14:59:44;1.88;;;1.30;;
75864;SDS011;64510;46.704;38.274;2023-04-03T15:02:28;1.20;;;0.93;;
75864;SDS011;64510;46.704;38.274;2023-04-03T15:04:54;2.45;;;1.13;;
75864;SDS011;64510;46.704;38.274;2023-04-03T15:07:21;1.38;;;1.10;;
75864;SDS011;64510;46.704;38.274;2023-04-03T15:09:48;2.35;;;1.42;;
75864;SDS011;64510;46.704;38.274;2023-04-03T15:12:15;2.78;;;1.05;;
75864;SDS011;64510;46.704;38.274;2023-04-03T15:14:41;3.33;;;1.65;;
75864;SDS011;64510;46.704;38.274;2023-04-03T15:17:10;2.70;;;1.77;;
75864;SDS011;64510;46.704;38.274;2023-04-03T15:19:41;4.70;;;2.30;;
75864;SDS011;64510;46.704;38.274;2023-04-03T15:22:10;6.25;;;3.42;;
75864;SDS011;64510;46.704;38.274;2023-04-03T15:24:39;1.60;;;1.25;;
75864;SDS011;64510;46.704;38.274;2023-04-03T15:27:05;6.72;;;2.30;;
75864;SDS011;64510;46.704;38.274;2023-04-03T15:29:31;2.20;;;1.65;;
75864;SDS011;64510;46.704;38.274;2023-04-03T15:31:57;2.55;;;2.22;;
75864;SDS011;64510;46.704;38.274;2023-04-03T15:34:23;3.25;;;2.30;;
75864;SDS011;64510;46.704;38.274;2023-04-03T15:36:49;2.50;;;2.28;;
75864;SDS011;64510;46.704;38.274;2023-04-03T15:39:17;2.58;;;1.88;;
75864;SDS011;64510;46.704;38.274;2023-04-03T15:41:44;3.47;;;2.10;;
75864;SDS011;64510;46.704;38.274;2023-04-03T15:44:10;2.22;;;2.13;;
75864;SDS011;64510;46.704;38.274;2023-04-03T15:46:37;3.38;;;1.70;;
75864;SDS011;64510;46.704;38.274;2023-04-03T15:49:04;7.30;;;2.35;;
75864;SDS011;64510;46.704;38.274;2023-04-03T15:51:31;2.92;;;2.05;;
75864;SDS011;64510;46.704;38.274;2023-04-03T15:53:57;5.20;;;2.03;;
75864;SDS011;64510;46.704;38.274;2023-04-03T15:56:22;4.15;;;2.40;;
75864;SDS011;64510;46.704;38.274;2023-04-03T15:58:48;2.33;;;2.08;;
75864;SDS011;64510;46.704;38.274;2023-04-03T16:01:14;4.35;;;2.65;;
75864;SDS011;64510;46.704;38.274;2023-04-03T16:03:41;7.68;;;2.35;;
75864;SDS011;64510;46.704;38.274;2023-04-03T16:06:17;6.32;;;2.45;;
75864;SDS011;64510;46.704;38.274;2023-04-03T16:08:44;3.38;;;2.55;;
75864;SDS011;64510;46.704;38.274;2023-04-03T16:11:11;11.93;;;2.40;;
75864;SDS011;64510;46.704;38.274;2023-04-03T16:13:37;4.60;;;2.25;;
75864;SDS011;64510;46.704;38.274;2023-04-03T16:16:03;6.78;;;3.60;;
75864;SDS011;64510;46.704;38.274;2023-04-03T16:18:30;2.25;;;2.05;;
75864;SDS011;64510;46.704;38.274;2023-04-03T16:20:56;3.00;;;2.38;;
75864;SDS011;64510;46.704;38.274;2023-04-03T16:23:23;6.13;;;2.80;;
75864;SDS011;64510;46.704;38.274;2023-04-03T16:25:49;3.85;;;2.25;;
75864;SDS011;64510;46.704;38.274;2023-04-03T16:28:16;4.72;;;2.60;;
75864;SDS011;64510;46.704;38.274;2023-04-03T16:30:43;4.45;;;2.95;;
75864;SDS011;64510;46.704;38.274;2023-04-03T16:33:11;2.67;;;2.17;;
75864;SDS011;64510;46.704;38.274;2023-04-03T16:35:38;4.18;;;2.45;;